sensor_id;sensor_type;location;lat;lon;timestamp;temperature;humidity
66312;HTU21D;53114;51.138;6.008;2023-08-30T00:00:47;14.00;118.99
66312;HTU21D;53114;51.138;6.008;2023-08-30T00:03:13;13.95;118.99
66312;HTU21D;53114;51.138;6.008;2023-08-30T00:05:40;13.96;118.99
66312;HTU21D;53114;51.138;6.008;2023-08-30T00:08:06;14.04;118.99
66312;HTU21D;53114;51.138;6.008;2023-08-30T00:10:32;14.13;118.99
66312;HTU21D;53114;51.138;6.008;2023-08-30T00:12:58;14.18;118.99
66312;HTU21D;53114;51.138;6.008;2023-08-30T00:15:24;14.22;118.99
66312;HTU21D;53114;51.138;6.008;2023-08-30T00:17:50;14.25;118.99
66312;HTU21D;53114;51.138;6.008;2023-08-30T00:20:20;14.27;118.99
66312;HTU21D;53114;51.138;6.008;2023-08-30T00:22:47;14.30;118.99
66312;HTU21D;53114;51.138;6.008;2023-08-30T00:25:16;14.37;118.99
66312;HTU21D;53114;51.138;6.008;2023-08-30T00:27:42;14.45;118.99
66312;HTU21D;53114;51.138;6.008;2023-08-30T00:30:10;14.50;118.99
66312;HTU21D;53114;51.138;6.008;2023-08-30T00:32:36;14.44;118.99
66312;HTU21D;53114;51.138;6.008;2023-08-30T00:35:02;14.38;118.99
66312;HTU21D;53114;51.138;6.008;2023-08-30T00:37:28;14.34;118.99
66312;HTU21D;53114;51.138;6.008;2023-08-30T00:39:54;14.35;118.99
66312;HTU21D;53114;51.138;6.008;2023-08-30T00:42:20;14.33;118.99
66312;HTU21D;53114;51.138;6.008;2023-08-30T00:44:46;14.30;118.99
66312;HTU21D;53114;51.138;6.008;2023-08-30T00:47:12;14.28;118.99
66312;HTU21D;53114;51.138;6.008;2023-08-30T00:49:39;14.30;118.99
66312;HTU21D;53114;51.138;6.008;2023-08-30T00:52:09;14.33;118.99
66312;HTU21D;53114;51.138;6.008;2023-08-30T00:54:36;14.37;118.99
66312;HTU21D;53114;51.138;6.008;2023-08-30T00:57:02;14.42;118.99
66312;HTU21D;53114;51.138;6.008;2023-08-30T00:59:32;14.43;118.99
66312;HTU21D;53114;51.138;6.008;2023-08-30T01:01:59;14.45;118.99
66312;HTU21D;53114;51.138;6.008;2023-08-30T01:04:29;14.50;118.99
66312;HTU21D;53114;51.138;6.008;2023-08-30T01:06:56;14.57;118.99
66312;HTU21D;53114;51.138;6.008;2023-08-30T01:09:23;14.64;118.99
66312;HTU21D;53114;51.138;6.008;2023-08-30T01:12:04;14.69;118.99
66312;HTU21D;53114;51.138;6.008;2023-08-30T01:17:43;14.80;118.99
66312;HTU21D;53114;51.138;6.008;2023-08-30T01:20:12;14.80;118.99
66312;HTU21D;53114;51.138;6.008;2023-08-30T01:22:53;14.80;118.99
66312;HTU21D;53114;51.138;6.008;2023-08-30T01:28:05;14.72;118.99
66312;HTU21D;53114;51.138;6.008;2023-08-30T01:30:34;14.72;118.99
66312;HTU21D;53114;51.138;6.008;2023-08-30T01:33:04;14.72;118.99
66312;HTU21D;53114;51.138;6.008;2023-08-30T01:35:35;14.70;118.99
66312;HTU21D;53114;51.138;6.008;2023-08-30T01:38:06;14.69;118.99
66312;HTU21D;53114;51.138;6.008;2023-08-30T01:40:39;14.68;118.99
66312;HTU21D;53114;51.138;6.008;2023-08-30T01:43:07;14.68;118.99
66312;HTU21D;53114;51.138;6.008;2023-08-30T01:45:38;14.64;118.99
66312;HTU21D;53114;51.138;6.008;2023-08-30T01:48:10;14.66;118.99
66312;HTU21D;53114;51.138;6.008;2023-08-30T01:50:39;14.67;118.99
66312;HTU21D;53114;51.138;6.008;2023-08-30T01:53:09;14.68;118.99
66312;HTU21D;53114;51.138;6.008;2023-08-30T01:55:37;14.71;118.99
66312;HTU21D;53114;51.138;6.008;2023-08-30T01:58:05;14.79;118.99
66312;HTU21D;53114;51.138;6.008;2023-08-30T02:00:31;14.86;118.99
66312;HTU21D;53114;51.138;6.008;2023-08-30T02:02:58;14.91;118.99
66312;HTU21D;53114;51.138;6.008;2023-08-30T02:05:24;14.95;118.99
66312;HTU21D;53114;51.138;6.008;2023-08-30T02:10:41;14.98;118.99
66312;HTU21D;53114;51.138;6.008;2023-08-30T02:13:11;14.98;118.99
66312;HTU21D;53114;51.138;6.008;2023-08-30T02:15:41;14.98;118.99
66312;HTU21D;53114;51.138;6.008;2023-08-30T02:18:09;14.96;118.99
66312;HTU21D;53114;51.138;6.008;2023-08-30T02:20:35;14.96;118.99
66312;HTU21D;53114;51.138;6.008;2023-08-30T02:23:01;14.97;118.99
66312;HTU21D;53114;51.138;6.008;2023-08-30T02:25:27;14.97;118.99
66312;HTU21D;53114;51.138;6.008;2023-08-30T02:27:54;14.98;118.99
66312;HTU21D;53114;51.138;6.008;2023-08-30T02:30:20;14.96;118.99
66312;HTU21D;53114;51.138;6.008;2023-08-30T02:32:46;14.89;118.99
66312;HTU21D;53114;51.138;6.008;2023-08-30T02:35:12;14.88;118.99
66312;HTU21D;53114;51.138;6.008;2023-08-30T02:37:37;14.87;118.99
66312;HTU21D;53114;51.138;6.008;2023-08-30T02:40:06;14.91;118.99
66312;HTU21D;53114;51.138;6.008;2023-08-30T02:42:32;14.96;118.99
66312;HTU21D;53114;51.138;6.008;2023-08-30T02:44:59;15.02;118.99
66312;HTU21D;53114;51.138;6.008;2023-08-30T02:47:25;15.04;118.99
66312;HTU21D;53114;51.138;6.008;2023-08-30T02:49:50;15.08;118.99
66312;HTU21D;53114;51.138;6.008;2023-08-30T02:52:17;15.13;118.99
66312;HTU21D;53114;51.138;6.008;2023-08-30T02:54:43;15.16;118.99
66312;HTU21D;53114;51.138;6.008;2023-08-30T02:57:09;15.18;118.99
66312;HTU21D;53114;51.138;6.008;2023-08-30T02:59:35;15.21;118.99
66312;HTU21D;53114;51.138;6.008;2023-08-30T03:02:04;15.18;118.99
66312;HTU21D;53114;51.138;6.008;2023-08-30T03:04:30;15.18;118.99
66312;HTU21D;53114;51.138;6.008;2023-08-30T03:06:56;15.18;118.99
66312;HTU21D;53114;51.138;6.008;2023-08-30T03:09:24;15.19;118.99
66312;HTU21D;53114;51.138;6.008;2023-08-30T03:11:50;15.23;118.99
66312;HTU21D;53114;51.138;6.008;2023-08-30T03:14:16;15.24;118.99
66312;HTU21D;53114;51.138;6.008;2023-08-30T03:16:42;15.28;118.99
66312;HTU21D;53114;51.138;6.008;2023-08-30T03:19:10;15.26;118.99
66312;HTU21D;53114;51.138;6.008;2023-08-30T03:21:36;15.18;118.99
66312;HTU21D;53114;51.138;6.008;2023-08-30T03:24:02;15.19;118.99
66312;HTU21D;53114;51.138;6.008;2023-08-30T03:26:28;15.23;118.99
66312;HTU21D;53114;51.138;6.008;2023-08-30T03:28:54;15.23;118.99
66312;HTU21D;53114;51.138;6.008;2023-08-30T03:31:21;15.29;118.99
66312;HTU21D;53114;51.138;6.008;2023-08-30T03:33:48;15.34;118.99
66312;HTU21D;53114;51.138;6.008;2023-08-30T03:36:17;15.32;118.99
66312;HTU21D;53114;51.138;6.008;2023-08-30T03:38:44;15.26;118.99
66312;HTU21D;53114;51.138;6.008;2023-08-30T03:41:12;15.24;118.99
66312;HTU21D;53114;51.138;6.008;2023-08-30T03:43:39;15.26;118.99
66312;HTU21D;53114;51.138;6.008;2023-08-30T03:46:06;15.25;118.99
66312;HTU21D;53114;51.138;6.008;2023-08-30T03:48:32;15.25;118.99
66312;HTU21D;53114;51.138;6.008;2023-08-30T03:50:58;15.24;118.99
66312;HTU21D;53114;51.138;6.008;2023-08-30T03:53:25;15.24;118.99
66312;HTU21D;53114;51.138;6.008;2023-08-30T03:55:51;15.19;118.99
66312;HTU21D;53114;51.138;6.008;2023-08-30T03:58:19;15.16;118.99
66312;HTU21D;53114;51.138;6.008;2023-08-30T04:00:45;15.15;118.99
66312;HTU21D;53114;51.138;6.008;2023-08-30T04:03:14;15.16;118.99
66312;HTU21D;53114;51.138;6.008;2023-08-30T04:05:40;15.21;118.99
66312;HTU21D;53114;51.138;6.008;2023-08-30T04:08:07;15.25;118.99
66312;HTU21D;53114;51.138;6.008;2023-08-30T04:10:37;15.24;118.99
66312;HTU21D;53114;51.138;6.008;2023-08-30T04:13:04;15.24;118.99
66312;HTU21D;53114;51.138;6.008;2023-08-30T04:15:35;15.25;118.99
66312;HTU21D;53114;51.138;6.008;2023-08-30T04:18:02;15.27;118.99
66312;HTU21D;53114;51.138;6.008;2023-08-30T04:20:29;15.26;118.99
66312;HTU21D;53114;51.138;6.008;2023-08-30T04:22:55;15.26;118.99
66312;HTU21D;53114;51.138;6.008;2023-08-30T04:25:23;15.25;118.99
66312;HTU21D;53114;51.138;6.008;2023-08-30T04:27:49;15.26;118.99
66312;HTU21D;53114;51.138;6.008;2023-08-30T04:30:15;15.26;118.99
66312;HTU21D;53114;51.138;6.008;2023-08-30T04:32:42;15.27;118.99
66312;HTU21D;53114;51.138;6.008;2023-08-30T04:35:08;15.28;118.99
66312;HTU21D;53114;51.138;6.008;2023-08-30T04:37:34;15.29;118.99
66312;HTU21D;53114;51.138;6.008;2023-08-30T04:40:00;15.34;118.99
66312;HTU21D;53114;51.138;6.008;2023-08-30T04:42:26;15.37;118.99
66312;HTU21D;53114;51.138;6.008;2023-08-30T04:44:52;15.39;118.99
66312;HTU21D;53114;51.138;6.008;2023-08-30T04:47:20;15.38;118.99
66312;HTU21D;53114;51.138;6.008;2023-08-30T04:49:52;15.37;118.99
66312;HTU21D;53114;51.138;6.008;2023-08-30T04:52:19;15.37;118.99
66312;HTU21D;53114;51.138;6.008;2023-08-30T04:54:45;15.38;118.99
66312;HTU21D;53114;51.138;6.008;2023-08-30T04:57:12;15.38;118.99
66312;HTU21D;53114;51.138;6.008;2023-08-30T04:59:43;15.40;118.99
66312;HTU21D;53114;51.138;6.008;2023-08-30T05:02:10;15.42;118.99
66312;HTU21D;53114;51.138;6.008;2023-08-30T05:04:43;15.43;118.99
66312;HTU21D;53114;51.138;6.008;2023-08-30T05:07:09;15.48;118.99
66312;HTU21D;53114;51.138;6.008;2023-08-30T05:09:35;15.53;118.99
66312;HTU21D;53114;51.138;6.008;2023-08-30T05:12:01;15.59;118.99
66312;HTU21D;53114;51.138;6.008;2023-08-30T05:14:29;15.65;118.99
66312;HTU21D;53114;51.138;6.008;2023-08-30T05:16:55;15.72;118.99
66312;HTU21D;53114;51.138;6.008;2023-08-30T05:19:21;15.77;118.99
66312;HTU21D;53114;51.138;6.008;2023-08-30T05:21:48;15.77;118.99
66312;HTU21D;53114;51.138;6.008;2023-08-30T05:24:21;15.76;118.99
66312;HTU21D;53114;51.138;6.008;2023-08-30T05:26:47;15.78;118.99
66312;HTU21D;53114;51.138;6.008;2023-08-30T05:29:15;15.84;118.99
66312;HTU21D;53114;51.138;6.008;2023-08-30T05:31:41;15.91;118.99
66312;HTU21D;53114;51.138;6.008;2023-08-30T05:34:31;16.00;118.99
66312;HTU21D;53114;51.138;6.008;2023-08-30T05:37:26;16.10;118.99
66312;HTU21D;53114;51.138;6.008;2023-08-30T05:40:18;16.18;118.99
66312;HTU21D;53114;51.138;6.008;2023-08-30T05:42:44;16.28;118.99
66312;HTU21D;53114;51.138;6.008;2023-08-30T05:45:11;16.33;118.99
66312;HTU21D;53114;51.138;6.008;2023-08-30T05:47:37;16.33;118.99
66312;HTU21D;53114;51.138;6.008;2023-08-30T05:50:03;16.30;118.99
66312;HTU21D;53114;51.138;6.008;2023-08-30T05:52:29;16.26;118.99
66312;HTU21D;53114;51.138;6.008;2023-08-30T05:54:55;16.26;118.99
66312;HTU21D;53114;51.138;6.008;2023-08-30T05:57:21;16.26;118.99
66312;HTU21D;53114;51.138;6.008;2023-08-30T05:59:49;16.20;118.99
66312;HTU21D;53114;51.138;6.008;2023-08-30T06:02:15;16.18;118.99
66312;HTU21D;53114;51.138;6.008;2023-08-30T06:04:41;16.16;118.99
66312;HTU21D;53114;51.138;6.008;2023-08-30T06:07:07;16.17;118.99
66312;HTU21D;53114;51.138;6.008;2023-08-30T06:09:34;16.24;118.99
66312;HTU21D;53114;51.138;6.008;2023-08-30T06:12:00;16.27;118.99
66312;HTU21D;53114;51.138;6.008;2023-08-30T06:14:26;16.26;118.99
66312;HTU21D;53114;51.138;6.008;2023-08-30T06:16:52;16.28;118.99
66312;HTU21D;53114;51.138;6.008;2023-08-30T06:19:18;16.36;118.99
66312;HTU21D;53114;51.138;6.008;2023-08-30T06:21:44;16.44;118.99
66312;HTU21D;53114;51.138;6.008;2023-08-30T06:24:10;16.54;118.99
66312;HTU21D;53114;51.138;6.008;2023-08-30T06:26:36;16.70;118.99
66312;HTU21D;53114;51.138;6.008;2023-08-30T06:29:02;16.89;118.99
66312;HTU21D;53114;51.138;6.008;2023-08-30T06:31:28;17.09;118.99
66312;HTU21D;53114;51.138;6.008;2023-08-30T06:33:54;17.28;118.99
66312;HTU21D;53114;51.138;6.008;2023-08-30T06:36:20;17.44;118.99
66312;HTU21D;53114;51.138;6.008;2023-08-30T06:38:49;17.55;118.99
66312;HTU21D;53114;51.138;6.008;2023-08-30T06:41:15;17.60;118.99
66312;HTU21D;53114;51.138;6.008;2023-08-30T06:43:41;17.58;118.99
66312;HTU21D;53114;51.138;6.008;2023-08-30T06:46:07;17.60;118.99
66312;HTU21D;53114;51.138;6.008;2023-08-30T06:48:33;17.64;118.99
66312;HTU21D;53114;51.138;6.008;2023-08-30T06:50:59;17.65;118.99
66312;HTU21D;53114;51.138;6.008;2023-08-30T06:53:28;17.64;118.99
66312;HTU21D;53114;51.138;6.008;2023-08-30T06:55:59;17.66;118.99
66312;HTU21D;53114;51.138;6.008;2023-08-30T06:58:25;17.63;118.99
66312;HTU21D;53114;51.138;6.008;2023-08-30T07:00:52;17.64;118.99
66312;HTU21D;53114;51.138;6.008;2023-08-30T07:03:18;17.74;118.99
66312;HTU21D;53114;51.138;6.008;2023-08-30T07:05:44;17.90;118.99
66312;HTU21D;53114;51.138;6.008;2023-08-30T07:08:10;18.05;118.99
66312;HTU21D;53114;51.138;6.008;2023-08-30T07:10:36;18.10;118.99
66312;HTU21D;53114;51.138;6.008;2023-08-30T07:13:02;18.25;118.69
66312;HTU21D;53114;51.138;6.008;2023-08-30T07:15:29;18.36;117.24
66312;HTU21D;53114;51.138;6.008;2023-08-30T07:17:56;18.38;115.30
66312;HTU21D;53114;51.138;6.008;2023-08-30T07:20:22;18.37;115.68
66312;HTU21D;53114;51.138;6.008;2023-08-30T07:22:48;18.37;115.64
66312;HTU21D;53114;51.138;6.008;2023-08-30T07:25:14;18.37;114.22
66312;HTU21D;53114;51.138;6.008;2023-08-30T07:27:40;18.37;113.99
66312;HTU21D;53114;51.138;6.008;2023-08-30T07:30:06;18.36;114.09
66312;HTU21D;53114;51.138;6.008;2023-08-30T07:32:33;18.30;111.29
66312;HTU21D;53114;51.138;6.008;2023-08-30T07:34:59;18.22;110.36
66312;HTU21D;53114;51.138;6.008;2023-08-30T07:37:25;18.17;109.32
66312;HTU21D;53114;51.138;6.008;2023-08-30T07:39:51;18.15;108.89
66312;HTU21D;53114;51.138;6.008;2023-08-30T07:42:18;18.28;108.31
66312;HTU21D;53114;51.138;6.008;2023-08-30T07:44:44;18.44;105.69
66312;HTU21D;53114;51.138;6.008;2023-08-30T07:47:10;18.59;103.05
66312;HTU21D;53114;51.138;6.008;2023-08-30T07:49:36;18.79;102.21
66312;HTU21D;53114;51.138;6.008;2023-08-30T07:52:02;18.93;100.37
66312;HTU21D;53114;51.138;6.008;2023-08-30T07:54:30;18.95;98.00
66312;HTU21D;53114;51.138;6.008;2023-08-30T07:56:56;18.86;97.54
66312;HTU21D;53114;51.138;6.008;2023-08-30T07:59:22;18.70;98.88
66312;HTU21D;53114;51.138;6.008;2023-08-30T08:01:48;18.48;100.88
66312;HTU21D;53114;51.138;6.008;2023-08-30T08:04:14;18.35;104.92
66312;HTU21D;53114;51.138;6.008;2023-08-30T08:06:40;18.24;107.64
66312;HTU21D;53114;51.138;6.008;2023-08-30T08:09:06;18.08;107.87
66312;HTU21D;53114;51.138;6.008;2023-08-30T08:11:33;17.95;110.25
66312;HTU21D;53114;51.138;6.008;2023-08-30T08:13:59;17.84;111.27
66312;HTU21D;53114;51.138;6.008;2023-08-30T08:16:25;17.76;114.06
66312;HTU21D;53114;51.138;6.008;2023-08-30T08:18:51;17.68;115.54
66312;HTU21D;53114;51.138;6.008;2023-08-30T08:21:17;17.64;115.96
66312;HTU21D;53114;51.138;6.008;2023-08-30T08:23:43;17.67;115.73
66312;HTU21D;53114;51.138;6.008;2023-08-30T08:26:10;17.69;114.80
66312;HTU21D;53114;51.138;6.008;2023-08-30T08:28:35;17.75;115.90
66312;HTU21D;53114;51.138;6.008;2023-08-30T08:31:01;17.84;116.73
66312;HTU21D;53114;51.138;6.008;2023-08-30T08:33:27;17.93;116.22
66312;HTU21D;53114;51.138;6.008;2023-08-30T08:35:53;18.00;114.86
66312;HTU21D;53114;51.138;6.008;2023-08-30T08:38:21;18.15;113.51
66312;HTU21D;53114;51.138;6.008;2023-08-30T08:40:47;18.32;112.65
66312;HTU21D;53114;51.138;6.008;2023-08-30T08:43:17;18.46;110.96
66312;HTU21D;53114;51.138;6.008;2023-08-30T08:45:45;18.55;109.60
66312;HTU21D;53114;51.138;6.008;2023-08-30T08:48:14;18.65;108.61
66312;HTU21D;53114;51.138;6.008;2023-08-30T08:50:40;18.64;107.54
66312;HTU21D;53114;51.138;6.008;2023-08-30T08:53:07;18.58;106.29
66312;HTU21D;53114;51.138;6.008;2023-08-30T08:55:35;18.50;106.24
66312;HTU21D;53114;51.138;6.008;2023-08-30T08:58:03;18.40;107.39
66312;HTU21D;53114;51.138;6.008;2023-08-30T09:00:30;18.34;109.37
66312;HTU21D;53114;51.138;6.008;2023-08-30T09:02:57;18.29;111.11
66312;HTU21D;53114;51.138;6.008;2023-08-30T09:05:24;18.27;112.11
66312;HTU21D;53114;51.138;6.008;2023-08-30T09:07:50;18.25;112.19
66312;HTU21D;53114;51.138;6.008;2023-08-30T09:10:20;18.21;112.73
66312;HTU21D;53114;51.138;6.008;2023-08-30T09:12:47;18.13;112.74
66312;HTU21D;53114;51.138;6.008;2023-08-30T09:15:16;17.97;114.24
66312;HTU21D;53114;51.138;6.008;2023-08-30T09:17:43;17.74;116.56
66312;HTU21D;53114;51.138;6.008;2023-08-30T09:20:11;17.48;118.99
66312;HTU21D;53114;51.138;6.008;2023-08-30T09:22:42;17.24;118.99
66312;HTU21D;53114;51.138;6.008;2023-08-30T09:28:29;16.72;118.99
66312;HTU21D;53114;51.138;6.008;2023-08-30T09:31:18;16.49;118.99
66312;HTU21D;53114;51.138;6.008;2023-08-30T09:34:01;16.37;118.99
66312;HTU21D;53114;51.138;6.008;2023-08-30T09:37:24;16.27;118.99
66312;HTU21D;53114;51.138;6.008;2023-08-30T09:43:00;16.15;118.99
66312;HTU21D;53114;51.138;6.008;2023-08-30T09:45:39;16.07;118.99
66312;HTU21D;53114;51.138;6.008;2023-08-30T09:48:34;16.07;118.99
66312;HTU21D;53114;51.138;6.008;2023-08-30T09:51:07;16.11;118.99
66312;HTU21D;53114;51.138;6.008;2023-08-30T09:53:42;16.20;118.99
66312;HTU21D;53114;51.138;6.008;2023-08-30T09:56:12;16.18;118.99
66312;HTU21D;53114;51.138;6.008;2023-08-30T09:59:01;16.20;118.99
66312;HTU21D;53114;51.138;6.008;2023-08-30T10:01:46;16.27;118.99
66312;HTU21D;53114;51.138;6.008;2023-08-30T10:04:19;16.26;118.99
66312;HTU21D;53114;51.138;6.008;2023-08-30T10:07:10;16.24;118.99
66312;HTU21D;53114;51.138;6.008;2023-08-30T10:09:44;16.26;118.99
66312;HTU21D;53114;51.138;6.008;2023-08-30T10:12:14;16.27;118.99
66312;HTU21D;53114;51.138;6.008;2023-08-30T10:14:53;16.29;118.99
66312;HTU21D;53114;51.138;6.008;2023-08-30T10:17:50;16.35;118.99
66312;HTU21D;53114;51.138;6.008;2023-08-30T10:20:32;16.44;118.99
66312;HTU21D;53114;51.138;6.008;2023-08-30T10:23:02;16.51;118.99
66312;HTU21D;53114;51.138;6.008;2023-08-30T10:25:32;16.59;118.99
66312;HTU21D;53114;51.138;6.008;2023-08-30T10:28:02;16.60;118.99
66312;HTU21D;53114;51.138;6.008;2023-08-30T10:30:32;16.62;118.99
66312;HTU21D;53114;51.138;6.008;2023-08-30T10:32:58;16.65;118.99
66312;HTU21D;53114;51.138;6.008;2023-08-30T10:35:34;16.65;118.99
66312;HTU21D;53114;51.138;6.008;2023-08-30T10:38:03;16.67;118.99
66312;HTU21D;53114;51.138;6.008;2023-08-30T10:41:05;16.74;118.99
66312;HTU21D;53114;51.138;6.008;2023-08-30T10:43:35;16.65;118.99
66312;HTU21D;53114;51.138;6.008;2023-08-30T10:46:05;16.57;118.99
66312;HTU21D;53114;51.138;6.008;2023-08-30T10:48:47;16.51;118.99
66312;HTU21D;53114;51.138;6.008;2023-08-30T10:51:44;16.54;118.99
66312;HTU21D;53114;51.138;6.008;2023-08-30T10:54:14;16.57;118.99
66312;HTU21D;53114;51.138;6.008;2023-08-30T10:56:57;16.57;118.99
66312;HTU21D;53114;51.138;6.008;2023-08-30T10:59:36;16.59;118.99
66312;HTU21D;53114;51.138;6.008;2023-08-30T11:02:06;16.58;118.99
66312;HTU21D;53114;51.138;6.008;2023-08-30T11:04:32;16.62;118.99
66312;HTU21D;53114;51.138;6.008;2023-08-30T11:06:58;16.81;118.99
66312;HTU21D;53114;51.138;6.008;2023-08-30T11:09:27;16.91;118.99
66312;HTU21D;53114;51.138;6.008;2023-08-30T11:11:53;16.98;118.99
66312;HTU21D;53114;51.138;6.008;2023-08-30T11:14:20;17.05;118.99
66312;HTU21D;53114;51.138;6.008;2023-08-30T11:16:49;17.20;118.99
66312;HTU21D;53114;51.138;6.008;2023-08-30T11:19:17;17.38;118.99
66312;HTU21D;53114;51.138;6.008;2023-08-30T11:21:45;17.45;118.99
66312;HTU21D;53114;51.138;6.008;2023-08-30T11:24:11;17.44;118.99
66312;HTU21D;53114;51.138;6.008;2023-08-30T11:26:38;17.39;118.99
66312;HTU21D;53114;51.138;6.008;2023-08-30T11:29:05;17.32;118.99
66312;HTU21D;53114;51.138;6.008;2023-08-30T11:31:35;17.23;118.99
66312;HTU21D;53114;51.138;6.008;2023-08-30T11:34:01;17.13;118.99
66312;HTU21D;53114;51.138;6.008;2023-08-30T11:36:30;17.04;118.99
66312;HTU21D;53114;51.138;6.008;2023-08-30T11:38:57;17.01;118.99
66312;HTU21D;53114;51.138;6.008;2023-08-30T11:41:25;16.93;118.99
66312;HTU21D;53114;51.138;6.008;2023-08-30T11:44:00;16.87;118.99
66312;HTU21D;53114;51.138;6.008;2023-08-30T11:46:33;16.89;118.99
66312;HTU21D;53114;51.138;6.008;2023-08-30T11:49:07;16.85;118.99
66312;HTU21D;53114;51.138;6.008;2023-08-30T11:51:49;16.86;118.99
66312;HTU21D;53114;51.138;6.008;2023-08-30T11:54:34;16.95;118.99
66312;HTU21D;53114;51.138;6.008;2023-08-30T11:57:04;17.03;118.99
66312;HTU21D;53114;51.138;6.008;2023-08-30T11:59:35;17.11;118.99
66312;HTU21D;53114;51.138;6.008;2023-08-30T12:02:07;17.20;118.99
66312;HTU21D;53114;51.138;6.008;2023-08-30T12:04:41;17.26;118.99
66312;HTU21D;53114;51.138;6.008;2023-08-30T12:07:08;17.29;118.99
66312;HTU21D;53114;51.138;6.008;2023-08-30T12:09:34;17.28;118.99
66312;HTU21D;53114;51.138;6.008;2023-08-30T12:12:09;17.30;118.99
66312;HTU21D;53114;51.138;6.008;2023-08-30T12:14:39;17.40;118.99
66312;HTU21D;53114;51.138;6.008;2023-08-30T12:17:05;17.49;118.99
66312;HTU21D;53114;51.138;6.008;2023-08-30T12:19:36;17.53;118.99
66312;HTU21D;53114;51.138;6.008;2023-08-30T12:22:16;17.58;118.99
66312;HTU21D;53114;51.138;6.008;2023-08-30T12:24:46;17.58;118.99
66312;HTU21D;53114;51.138;6.008;2023-08-30T12:27:23;17.52;118.99
66312;HTU21D;53114;51.138;6.008;2023-08-30T12:29:49;17.45;118.99
66312;HTU21D;53114;51.138;6.008;2023-08-30T12:32:18;17.35;118.99
66312;HTU21D;53114;51.138;6.008;2023-08-30T12:34:45;17.36;118.99
66312;HTU21D;53114;51.138;6.008;2023-08-30T12:37:11;17.35;118.99
66312;HTU21D;53114;51.138;6.008;2023-08-30T12:39:37;17.40;118.99
66312;HTU21D;53114;51.138;6.008;2023-08-30T12:42:03;17.46;118.99
66312;HTU21D;53114;51.138;6.008;2023-08-30T12:44:30;17.59;118.99
66312;HTU21D;53114;51.138;6.008;2023-08-30T12:46:58;17.77;118.99
66312;HTU21D;53114;51.138;6.008;2023-08-30T12:49:24;17.93;118.99
66312;HTU21D;53114;51.138;6.008;2023-08-30T12:51:53;17.94;118.99
66312;HTU21D;53114;51.138;6.008;2023-08-30T12:54:19;17.94;118.99
66312;HTU21D;53114;51.138;6.008;2023-08-30T12:56:47;18.00;118.99
66312;HTU21D;53114;51.138;6.008;2023-08-30T12:59:14;18.02;118.99
66312;HTU21D;53114;51.138;6.008;2023-08-30T13:01:42;18.00;118.99
66312;HTU21D;53114;51.138;6.008;2023-08-30T13:04:08;17.94;118.99
66312;HTU21D;53114;51.138;6.008;2023-08-30T13:06:34;17.94;118.99
66312;HTU21D;53114;51.138;6.008;2023-08-30T13:09:00;17.92;118.99
66312;HTU21D;53114;51.138;6.008;2023-08-30T13:11:26;17.91;118.99
66312;HTU21D;53114;51.138;6.008;2023-08-30T13:13:54;17.88;118.99
66312;HTU21D;53114;51.138;6.008;2023-08-30T13:16:20;17.91;118.99
66312;HTU21D;53114;51.138;6.008;2023-08-30T13:18:46;17.92;118.99
66312;HTU21D;53114;51.138;6.008;2023-08-30T13:21:12;17.90;118.99
66312;HTU21D;53114;51.138;6.008;2023-08-30T13:23:38;17.87;118.99
66312;HTU21D;53114;51.138;6.008;2023-08-30T13:26:04;17.79;118.99
66312;HTU21D;53114;51.138;6.008;2023-08-30T13:28:30;17.66;118.99
66312;HTU21D;53114;51.138;6.008;2023-08-30T13:30:56;17.56;118.99
66312;HTU21D;53114;51.138;6.008;2023-08-30T13:33:22;17.51;118.99
66312;HTU21D;53114;51.138;6.008;2023-08-30T13:35:49;17.45;118.99
66312;HTU21D;53114;51.138;6.008;2023-08-30T13:38:17;17.36;118.99
66312;HTU21D;53114;51.138;6.008;2023-08-30T13:40:44;17.31;118.99
66312;HTU21D;53114;51.138;6.008;2023-08-30T13:43:10;17.24;118.99
66312;HTU21D;53114;51.138;6.008;2023-08-30T13:45:36;17.19;118.99
66312;HTU21D;53114;51.138;6.008;2023-08-30T13:48:02;17.14;118.99
66312;HTU21D;53114;51.138;6.008;2023-08-30T13:50:29;17.09;118.99
66312;HTU21D;53114;51.138;6.008;2023-08-30T13:52:59;17.02;118.99
66312;HTU21D;53114;51.138;6.008;2023-08-30T13:55:25;16.98;118.99
66312;HTU21D;53114;51.138;6.008;2023-08-30T13:57:51;16.88;118.99
66312;HTU21D;53114;51.138;6.008;2023-08-30T14:00:18;16.91;118.99
66312;HTU21D;53114;51.138;6.008;2023-08-30T14:02:44;16.94;118.99
66312;HTU21D;53114;51.138;6.008;2023-08-30T14:05:10;17.03;118.99
66312;HTU21D;53114;51.138;6.008;2023-08-30T14:07:36;17.18;118.99
66312;HTU21D;53114;51.138;6.008;2023-08-30T14:10:02;17.35;118.99
66312;HTU21D;53114;51.138;6.008;2023-08-30T14:12:28;17.48;118.99
66312;HTU21D;53114;51.138;6.008;2023-08-30T14:14:54;17.56;118.99
66312;HTU21D;53114;51.138;6.008;2023-08-30T14:17:20;17.77;118.99
66312;HTU21D;53114;51.138;6.008;2023-08-30T14:19:47;18.06;118.99
66312;HTU21D;53114;51.138;6.008;2023-08-30T14:22:13;18.32;118.99
66312;HTU21D;53114;51.138;6.008;2023-08-30T14:24:39;18.52;118.99
66312;HTU21D;53114;51.138;6.008;2023-08-30T14:27:05;18.57;118.99
66312;HTU21D;53114;51.138;6.008;2023-08-30T14:29:31;18.51;118.99
66312;HTU21D;53114;51.138;6.008;2023-08-30T14:31:57;18.56;118.99
66312;HTU21D;53114;51.138;6.008;2023-08-30T14:34:23;18.62;118.99
66312;HTU21D;53114;51.138;6.008;2023-08-30T14:36:49;18.62;118.99
66312;HTU21D;53114;51.138;6.008;2023-08-30T14:39:15;18.61;118.99
66312;HTU21D;53114;51.138;6.008;2023-08-30T14:41:41;18.50;118.99
66312;HTU21D;53114;51.138;6.008;2023-08-30T14:44:07;18.36;118.99
66312;HTU21D;53114;51.138;6.008;2023-08-30T14:46:34;18.37;118.99
66312;HTU21D;53114;51.138;6.008;2023-08-30T14:49:00;18.42;118.99
66312;HTU21D;53114;51.138;6.008;2023-08-30T14:51:26;18.40;118.99
66312;HTU21D;53114;51.138;6.008;2023-08-30T14:53:52;18.39;118.99
66312;HTU21D;53114;51.138;6.008;2023-08-30T14:56:17;18.43;118.99
66312;HTU21D;53114;51.138;6.008;2023-08-30T14:58:44;18.35;118.99
66312;HTU21D;53114;51.138;6.008;2023-08-30T15:01:15;18.24;118.99
66312;HTU21D;53114;51.138;6.008;2023-08-30T15:03:41;18.25;118.99
66312;HTU21D;53114;51.138;6.008;2023-08-30T15:06:07;18.25;118.99
66312;HTU21D;53114;51.138;6.008;2023-08-30T15:08:33;18.30;118.99
66312;HTU21D;53114;51.138;6.008;2023-08-30T15:10:59;18.41;118.99
66312;HTU21D;53114;51.138;6.008;2023-08-30T15:13:26;18.50;118.99
66312;HTU21D;53114;51.138;6.008;2023-08-30T15:15:52;18.56;118.99
66312;HTU21D;53114;51.138;6.008;2023-08-30T15:18:19;18.58;118.99
66312;HTU21D;53114;51.138;6.008;2023-08-30T15:20:45;18.64;118.99
66312;HTU21D;53114;51.138;6.008;2023-08-30T15:23:13;18.68;118.99
66312;HTU21D;53114;51.138;6.008;2023-08-30T15:25:47;18.71;118.99